createdAt,value
2018-06-14T00:01:27.382Z,99.90
2018-06-14T00:03:56.386Z,99.90
2018-06-14T00:06:25.375Z,99.90
2018-06-14T00:08:54.352Z,99.90
2018-06-14T00:11:23.371Z,99.90
2018-06-14T00:13:52.336Z,99.90
2018-06-14T00:16:21.355Z,99.90
2018-06-14T00:18:50.395Z,99.90
2018-06-14T00:21:19.351Z,99.90
2018-06-14T00:23:48.351Z,99.90
2018-06-14T00:26:17.359Z,99.90
2018-06-14T00:28:46.497Z,99.90
2018-06-14T00:31:15.446Z,99.90
2018-06-14T00:33:44.410Z,99.90
2018-06-14T00:36:13.515Z,99.90
2018-06-14T00:38:42.587Z,99.90
2018-06-14T00:41:11.565Z,99.90
2018-06-14T00:43:40.686Z,99.90
2018-06-14T00:46:09.659Z,99.90
2018-06-14T00:48:38.618Z,99.90
2018-06-14T00:51:07.822Z,99.90
2018-06-14T00:53:36.786Z,99.90
2018-06-14T00:56:05.774Z,99.90
2018-06-14T00:58:34.720Z,99.90
2018-06-14T01:01:03.718Z,99.90
2018-06-14T01:03:32.688Z,99.90
2018-06-14T01:06:01.662Z,99.90
2018-06-14T01:08:30.706Z,99.90
2018-06-14T01:10:59.967Z,99.90
2018-06-14T01:15:57.603Z,99.90
2018-06-14T01:18:26.566Z,99.90
2018-06-14T01:20:55.564Z,99.90
2018-06-14T01:23:24.563Z,99.90
2018-06-14T01:25:53.558Z,99.90
2018-06-14T01:28:22.568Z,99.90
2018-06-14T01:30:51.658Z,99.90
2018-06-14T01:33:20.637Z,99.90
2018-06-14T01:35:49.679Z,99.90
2018-06-14T01:38:22.350Z,99.90
2018-06-14T01:40:51.415Z,99.90
2018-06-14T01:43:21.138Z,99.90
2018-06-14T01:45:50.302Z,99.90
2018-06-14T01:48:19.374Z,99.90
2018-06-14T01:50:48.555Z,99.90
2018-06-14T01:53:31.707Z,99.90
2018-06-14T01:56:00.779Z,99.90
2018-06-14T01:58:30.075Z,99.90
2018-06-14T02:01:00.486Z,99.90
2018-06-14T02:03:29.731Z,99.90
2018-06-14T02:05:58.728Z,99.90
2018-06-14T02:08:27.749Z,99.90
2018-06-14T02:10:56.765Z,99.90
2018-06-14T02:13:25.793Z,99.90
2018-06-14T02:15:54.746Z,99.90
2018-06-14T02:18:23.702Z,99.90
2018-06-14T02:20:52.733Z,99.90
2018-06-14T02:23:21.756Z,99.90
2018-06-14T02:25:50.787Z,99.90
2018-06-14T02:28:19.764Z,99.90
2018-06-14T02:30:48.771Z,99.90
2018-06-14T02:33:17.966Z,99.90
2018-06-14T02:35:46.927Z,99.90
2018-06-14T02:38:15.992Z,99.90
2018-06-14T02:40:44.983Z,99.90
2018-06-14T02:43:14.012Z,99.90
2018-06-14T02:45:43.287Z,99.90
2018-06-14T02:48:12.285Z,99.90
2018-06-14T02:50:41.322Z,99.90
2018-06-14T02:53:10.387Z,99.90
2018-06-14T02:55:40.043Z,99.90
2018-06-14T02:58:09.027Z,99.90
2018-06-14T03:00:38.011Z,99.90
2018-06-14T03:03:06.994Z,99.90
2018-06-14T03:05:36.039Z,99.90
2018-06-14T03:08:05.288Z,99.90
2018-06-14T03:10:34.295Z,99.90
2018-06-14T03:13:03.295Z,99.90
2018-06-14T03:15:32.283Z,99.90
2018-06-14T03:18:01.299Z,99.90
2018-06-14T03:20:30.234Z,99.90
2018-06-14T03:23:00.125Z,99.90
2018-06-14T03:25:29.142Z,99.90
2018-06-14T03:27:58.162Z,99.90
2018-06-14T03:30:27.158Z,99.90
2018-06-14T03:32:56.218Z,99.90
2018-06-14T03:35:25.306Z,99.90
2018-06-14T03:37:54.262Z,99.90
2018-06-14T03:40:23.250Z,99.90
2018-06-14T03:42:52.238Z,99.90
2018-06-14T03:45:21.933Z,99.90
2018-06-14T03:47:51.353Z,99.90
2018-06-14T03:50:20.370Z,99.90
2018-06-14T03:52:49.391Z,99.90
2018-06-14T03:55:18.332Z,99.90
2018-06-14T03:57:47.318Z,99.90
2018-06-14T04:00:16.363Z,99.90
2018-06-14T04:02:45.346Z,99.90
2018-06-14T04:05:14.451Z,99.90
2018-06-14T04:07:43.471Z,99.90
2018-06-14T04:10:12.532Z,99.90
2018-06-14T04:12:41.489Z,99.90
2018-06-14T04:15:10.518Z,99.90
2018-06-14T04:17:39.575Z,99.90
2018-06-14T04:20:08.551Z,99.90
2018-06-14T04:22:37.583Z,99.90
2018-06-14T04:25:06.574Z,99.90
2018-06-14T04:27:35.569Z,99.90
2018-06-14T04:30:04.642Z,99.90
2018-06-14T04:32:33.611Z,99.90
2018-06-14T04:35:02.599Z,99.90
2018-06-14T04:37:32.588Z,99.90
2018-06-14T04:40:01.711Z,99.90
2018-06-14T04:42:30.774Z,99.90
2018-06-14T04:44:59.798Z,99.90
2018-06-14T04:47:28.790Z,99.90
2018-06-14T04:49:57.783Z,99.90
2018-06-14T04:54:55.394Z,99.90
2018-06-14T04:57:27.445Z,99.90
2018-06-14T04:59:56.566Z,99.90
2018-06-14T05:02:25.533Z,99.90
2018-06-14T05:04:54.532Z,99.90
2018-06-14T05:07:23.551Z,99.90
2018-06-14T05:09:52.715Z,99.90
2018-06-14T05:12:21.694Z,99.90
2018-06-14T05:14:50.668Z,99.90
2018-06-14T05:17:19.710Z,99.90
2018-06-14T05:19:48.683Z,99.90
2018-06-14T05:22:17.666Z,99.90
2018-06-14T05:24:46.703Z,99.90
2018-06-14T05:27:15.770Z,99.90
2018-06-14T05:29:45.704Z,99.90
2018-06-14T05:32:14.927Z,99.90
2018-06-14T05:34:44.113Z,99.90
2018-06-14T05:37:13.220Z,99.90
2018-06-14T05:39:42.335Z,99.90
2018-06-14T05:42:11.443Z,99.90
2018-06-14T05:44:40.377Z,99.90
2018-06-14T05:47:09.358Z,99.90
2018-06-14T05:49:38.463Z,99.90
2018-06-14T05:52:07.474Z,99.90
2018-06-14T05:54:36.465Z,99.90
2018-06-14T05:57:05.486Z,99.90
2018-06-14T05:59:34.538Z,99.90
2018-06-14T06:02:03.639Z,99.90
2018-06-14T06:04:32.602Z,99.90
2018-06-14T06:09:30.283Z,99.90
2018-06-14T06:11:59.322Z,99.90
2018-06-14T06:14:28.303Z,99.90
2018-06-14T06:16:57.371Z,99.90
2018-06-14T06:19:26.345Z,99.90
2018-06-14T06:21:55.365Z,99.90
2018-06-14T06:24:24.366Z,99.90
2018-06-14T06:26:53.447Z,99.90
2018-06-14T06:29:22.417Z,99.90
2018-06-14T06:31:51.414Z,99.90
2018-06-14T06:34:20.903Z,99.90
2018-06-14T06:36:50.372Z,99.90
2018-06-14T06:39:19.892Z,99.90
2018-06-14T06:41:48.978Z,99.90
2018-06-14T06:44:18.019Z,99.90
2018-06-14T06:46:47.005Z,99.90
2018-06-14T06:49:16.020Z,99.90
2018-06-14T06:51:45.264Z,99.90
2018-06-14T06:54:14.304Z,99.90
2018-06-14T06:56:43.527Z,99.90
2018-06-14T06:59:12.563Z,99.90
2018-06-14T07:01:41.559Z,99.90
2018-06-14T07:04:10.542Z,99.90
2018-06-14T07:06:39.510Z,99.90
2018-06-14T07:09:09.578Z,99.90
2018-06-14T07:11:38.723Z,99.90
2018-06-14T07:14:07.919Z,99.90
2018-06-14T07:16:37.843Z,99.90
2018-06-14T07:19:06.881Z,99.90
2018-06-14T07:21:36.202Z,99.90
2018-06-14T07:24:05.430Z,99.90
2018-06-14T07:26:34.386Z,99.90
2018-06-14T07:29:03.392Z,99.90
2018-06-14T07:31:32.355Z,99.90
2018-06-14T07:34:01.377Z,99.90
2018-06-14T07:36:30.444Z,99.90
2018-06-14T07:38:59.439Z,99.90
2018-06-14T07:41:28.430Z,99.90
2018-06-14T07:43:57.451Z,99.90
2018-06-14T07:46:26.438Z,99.90
2018-06-14T07:48:55.428Z,99.90
2018-06-14T07:51:24.423Z,99.90
2018-06-14T07:53:53.605Z,99.90
2018-06-14T07:56:22.755Z,99.90
2018-06-14T07:58:51.734Z,99.90
2018-06-14T08:01:20.695Z,99.90
2018-06-14T08:03:49.672Z,99.90
2018-06-14T08:06:18.783Z,99.90
2018-06-14T08:08:47.915Z,99.90
2018-06-14T08:11:17.061Z,99.90
2018-06-14T08:13:46.363Z,99.90
2018-06-14T08:16:15.407Z,99.90
2018-06-14T08:18:44.398Z,99.90
2018-06-14T08:21:13.388Z,99.90
2018-06-14T08:23:42.511Z,99.90
2018-06-14T08:26:11.530Z,99.90
2018-06-14T08:28:40.586Z,99.90
2018-06-14T08:31:09.634Z,99.90
2018-06-14T08:33:38.740Z,99.90
2018-06-14T08:36:07.762Z,99.90
2018-06-14T08:38:36.730Z,99.90
2018-06-14T08:41:05.752Z,99.90
2018-06-14T08:43:34.723Z,99.90
2018-06-14T08:46:03.738Z,99.90
2018-06-14T08:48:32.698Z,99.90
2018-06-14T08:51:01.722Z,99.90
2018-06-14T08:53:30.682Z,99.90
2018-06-14T08:55:59.759Z,99.90
2018-06-14T08:58:28.779Z,99.90
2018-06-14T09:00:57.753Z,99.90
2018-06-14T09:03:26.758Z,99.90
2018-06-14T09:05:55.738Z,99.90
2018-06-14T09:08:24.742Z,99.90
2018-06-14T09:10:53.770Z,99.90
2018-06-14T09:13:22.750Z,99.90
2018-06-14T09:15:51.798Z,99.90
2018-06-14T09:18:20.838Z,99.90
2018-06-14T09:20:49.800Z,99.90
2018-06-14T09:23:18.981Z,99.90
2018-06-14T09:25:48.263Z,99.90
2018-06-14T09:28:17.290Z,99.90
2018-06-14T09:30:46.434Z,99.90
2018-06-14T09:33:15.906Z,99.90
2018-06-14T09:35:44.945Z,99.90
2018-06-14T09:38:14.011Z,99.90
2018-06-14T09:40:43.261Z,99.90
2018-06-14T09:43:12.257Z,99.90
2018-06-14T09:48:09.866Z,99.90
2018-06-14T09:50:38.963Z,99.90
2018-06-14T09:53:07.983Z,99.90
2018-06-14T09:55:36.966Z,99.90
2018-06-14T09:58:05.935Z,99.90
2018-06-14T10:00:35.026Z,99.90
2018-06-14T10:03:04.024Z,99.90
2018-06-14T10:05:33.094Z,99.90
2018-06-14T10:08:02.089Z,99.90
2018-06-14T10:10:31.077Z,99.90
2018-06-14T10:13:00.067Z,99.90
2018-06-14T10:15:29.119Z,99.90
2018-06-14T10:17:58.099Z,99.90
2018-06-14T10:20:27.085Z,99.90
2018-06-14T10:22:56.054Z,99.90
2018-06-14T10:25:25.079Z,99.90
2018-06-14T10:27:54.183Z,99.90
2018-06-14T10:30:23.242Z,99.90
2018-06-14T10:32:52.239Z,99.90
2018-06-14T10:35:21.358Z,99.90
2018-06-14T10:37:50.355Z,99.90
2018-06-14T10:40:19.426Z,99.90
2018-06-14T10:42:48.647Z,99.90
2018-06-14T10:45:17.652Z,99.90
2018-06-14T10:47:46.707Z,99.90
2018-06-14T10:50:15.680Z,99.90
2018-06-14T10:52:44.684Z,99.90
2018-06-14T10:55:13.778Z,99.90
2018-06-14T10:57:42.862Z,99.20
2018-06-14T11:00:11.867Z,99.30
2018-06-14T11:02:40.995Z,98.80
2018-06-14T11:05:10.315Z,98.90
2018-06-14T11:07:39.271Z,98.50
2018-06-14T11:10:08.282Z,99.70
2018-06-14T11:12:37.354Z,99.20
2018-06-14T11:15:06.430Z,98.40
2018-06-14T11:17:35.466Z,97.10
2018-06-14T11:20:04.483Z,97.60
2018-06-14T11:22:33.562Z,97.90
2018-06-14T11:25:03.098Z,99.00
2018-06-14T11:27:32.154Z,98.40
2018-06-14T11:30:01.216Z,98.60
2018-06-14T11:32:30.153Z,99.00
2018-06-14T11:34:59.115Z,98.90
2018-06-14T11:37:28.411Z,98.80
2018-06-14T11:39:57.553Z,98.80
2018-06-14T11:42:26.590Z,98.30
2018-06-14T11:44:55.655Z,98.60
2018-06-14T11:47:24.624Z,99.10
2018-06-14T11:49:53.635Z,97.90
2018-06-14T11:52:23.014Z,99.10
2018-06-14T11:54:52.045Z,98.70
2018-06-14T11:57:22.932Z,98.20
2018-06-14T11:59:53.058Z,97.90
2018-06-14T12:02:22.698Z,97.30
2018-06-14T12:04:52.586Z,99.30
2018-06-14T12:07:21.562Z,96.80
2018-06-14T12:09:50.566Z,98.00
2018-06-14T12:12:19.734Z,97.00
2018-06-14T12:14:48.774Z,96.50
2018-06-14T12:17:17.786Z,97.80
2018-06-14T12:19:46.805Z,97.70
2018-06-14T12:22:15.889Z,96.90
2018-06-14T12:24:44.894Z,97.00
2018-06-14T12:27:13.891Z,97.40
2018-06-14T12:29:42.946Z,99.10
2018-06-14T12:32:11.922Z,97.90
2018-06-14T12:34:40.957Z,97.10
2018-06-14T12:37:11.293Z,96.10
2018-06-14T12:39:40.286Z,97.40
2018-06-14T12:42:09.469Z,96.70
2018-06-14T12:44:38.463Z,96.30
2018-06-14T12:47:07.475Z,96.80
2018-06-14T12:49:36.457Z,97.80
2018-06-14T12:52:06.704Z,96.90
2018-06-14T12:54:35.695Z,96.70
2018-06-14T12:57:04.772Z,99.20
2018-06-14T12:59:33.736Z,97.50
2018-06-14T13:02:02.775Z,96.60
2018-06-14T13:04:31.811Z,97.60
2018-06-14T13:07:00.815Z,96.40
2018-06-14T13:09:29.827Z,97.50
2018-06-14T13:11:58.871Z,95.20
2018-06-14T13:14:27.827Z,95.70
2018-06-14T13:16:56.805Z,95.70
2018-06-14T13:19:25.827Z,95.40
2018-06-14T13:21:54.815Z,94.20
2018-06-14T13:24:23.811Z,93.40
2018-06-14T13:26:52.794Z,93.30
2018-06-14T13:29:21.818Z,93.20
2018-06-14T13:31:50.915Z,91.40
2018-06-14T13:34:20.746Z,92.60
2018-06-14T13:36:49.754Z,90.30
2018-06-14T13:39:18.723Z,90.20
2018-06-14T13:41:47.763Z,90.50
2018-06-14T13:44:16.762Z,90.50
2018-06-14T13:46:45.767Z,91.20
2018-06-14T13:49:14.812Z,92.10
2018-06-14T13:51:44.063Z,93.50
2018-06-14T13:54:13.049Z,93.20
2018-06-14T13:56:42.225Z,92.50
2018-06-14T13:59:11.346Z,91.30
2018-06-14T14:01:40.466Z,90.30
2018-06-14T14:04:09.427Z,88.20
2018-06-14T14:06:38.468Z,90.90
2018-06-14T14:09:09.522Z,83.20
2018-06-14T14:11:38.551Z,81.70
2018-06-14T14:14:07.652Z,78.90
2018-06-14T14:16:36.758Z,71.40
2018-06-14T14:19:05.746Z,69.50
2018-06-14T14:21:34.775Z,67.40
2018-06-14T14:24:03.735Z,65.20
2018-06-14T14:26:32.864Z,65.60
2018-06-14T14:29:01.849Z,67.40
2018-06-14T14:31:30.822Z,70.40
2018-06-14T14:33:59.788Z,71.60
2018-06-14T14:36:28.793Z,69.30
2018-06-14T14:38:57.934Z,68.90
2018-06-14T14:41:26.891Z,69.20
2018-06-14T14:43:56.019Z,67.90
2018-06-14T14:46:25.140Z,70.50
2018-06-14T14:48:54.203Z,72.70
2018-06-14T14:51:23.204Z,75.60
2018-06-14T14:53:52.387Z,75.40
2018-06-14T14:56:21.463Z,77.50
2018-06-14T14:58:50.571Z,79.00
2018-06-14T15:01:19.641Z,81.30
2018-06-14T15:03:48.850Z,81.60
2018-06-14T15:06:17.855Z,81.50
2018-06-14T15:08:46.982Z,77.30
2018-06-14T15:11:16.038Z,75.70
2018-06-14T15:13:45.031Z,74.40
2018-06-14T15:16:14.572Z,74.10
2018-06-14T15:18:43.546Z,72.30
2018-06-14T15:21:12.622Z,75.70
2018-06-14T15:23:41.616Z,79.30
2018-06-14T15:26:10.632Z,79.00
2018-06-14T15:28:39.759Z,82.70
2018-06-14T15:31:08.726Z,80.20
2018-06-14T15:33:37.683Z,79.60
2018-06-14T15:36:06.706Z,75.90
2018-06-14T15:38:35.710Z,76.20
2018-06-14T15:41:04.802Z,77.60
2018-06-14T15:43:33.767Z,76.30
2018-06-14T15:46:02.744Z,72.90
2018-06-14T15:48:31.750Z,70.80
2018-06-14T15:51:00.739Z,70.20
2018-06-14T15:53:29.704Z,69.00
2018-06-14T15:56:17.986Z,69.80
2018-06-14T15:58:47.198Z,67.70
2018-06-14T16:01:16.270Z,66.40
2018-06-14T16:03:45.271Z,68.80
2018-06-14T16:06:14.307Z,70.40
2018-06-14T16:08:43.371Z,70.60
2018-06-14T16:11:12.403Z,69.00
2018-06-14T16:13:41.444Z,68.50
2018-06-14T16:16:10.626Z,71.00
2018-06-14T16:18:39.578Z,70.30
2018-06-14T16:21:08.608Z,69.80
2018-06-14T16:23:37.588Z,72.30
2018-06-14T16:26:06.731Z,73.40
2018-06-14T16:28:35.743Z,77.20
2018-06-14T16:31:05.892Z,75.30
2018-06-14T16:33:34.936Z,73.30
2018-06-14T16:36:04.127Z,72.20
2018-06-14T16:38:33.106Z,73.10
2018-06-14T16:41:02.240Z,72.70
2018-06-14T16:43:31.243Z,78.00
2018-06-14T16:46:00.404Z,77.80
2018-06-14T16:48:29.255Z,78.50
2018-06-14T16:50:58.230Z,81.50
2018-06-14T16:53:27.203Z,81.00
2018-06-14T16:55:56.325Z,79.80
2018-06-14T16:58:25.330Z,80.60
2018-06-14T17:00:54.431Z,80.20
2018-06-14T17:03:23.437Z,83.70
2018-06-14T17:05:53.135Z,82.70
2018-06-14T17:08:22.238Z,80.30
2018-06-14T17:10:51.216Z,80.00
2018-06-14T17:13:20.462Z,80.10
2018-06-14T17:15:49.420Z,80.90
2018-06-14T17:18:18.432Z,81.40
2018-06-14T17:20:47.449Z,81.80
2018-06-14T17:23:16.462Z,81.80
2018-06-14T17:25:45.426Z,83.60
2018-06-14T17:28:14.427Z,83.10
2018-06-14T17:30:43.414Z,83.50
2018-06-14T17:33:12.415Z,84.20
2018-06-14T17:35:41.374Z,83.40
2018-06-14T17:38:10.522Z,85.50
2018-06-14T17:40:39.751Z,86.80
2018-06-14T17:43:10.120Z,84.90
2018-06-14T17:45:39.282Z,86.00
2018-06-14T17:48:08.273Z,87.10
2018-06-14T17:50:37.310Z,88.70
2018-06-14T17:53:06.323Z,87.90
2018-06-14T17:55:35.286Z,87.40
2018-06-14T17:58:04.384Z,87.00
2018-06-14T18:00:33.381Z,88.40
2018-06-14T18:03:02.350Z,90.20
2018-06-14T18:05:31.361Z,88.30
2018-06-14T18:08:00.330Z,89.10
2018-06-14T18:10:29.334Z,90.10
2018-06-14T18:12:58.297Z,90.20
2018-06-14T18:15:27.359Z,91.40
2018-06-14T18:17:56.303Z,90.90
2018-06-14T18:20:25.272Z,90.70
2018-06-14T18:22:54.267Z,91.30
2018-06-14T18:25:23.259Z,91.70
2018-06-14T18:27:52.310Z,91.30
2018-06-14T18:30:21.299Z,91.30
2018-06-14T18:32:50.359Z,92.10
2018-06-14T18:35:19.378Z,92.00
2018-06-14T18:37:49.471Z,92.90
2018-06-14T18:40:18.440Z,93.30
2018-06-14T18:42:47.443Z,93.50
2018-06-14T18:45:16.482Z,93.20
2018-06-14T18:47:45.398Z,93.40
2018-06-14T18:50:14.374Z,93.90
2018-06-14T18:52:43.386Z,94.20
2018-06-14T18:55:12.402Z,94.00
2018-06-14T18:57:41.419Z,94.50
2018-06-14T19:00:10.442Z,95.00
2018-06-14T19:02:39.615Z,95.20
2018-06-14T19:05:08.614Z,95.60
2018-06-14T19:07:37.718Z,96.30
2018-06-14T19:10:06.831Z,96.10
2018-06-14T19:12:35.838Z,96.50
2018-06-14T19:15:05.107Z,97.40
2018-06-14T19:17:34.227Z,97.70
2018-06-14T19:20:05.048Z,97.70
2018-06-14T19:22:34.153Z,98.20
2018-06-14T19:25:06.505Z,98.70
2018-06-14T19:27:36.621Z,99.30
2018-06-14T19:30:07.718Z,99.60
2018-06-14T19:32:37.847Z,99.90
2018-06-14T19:35:07.103Z,99.90
2018-06-14T19:37:36.246Z,99.90
2018-06-14T19:40:05.474Z,99.90
2018-06-14T19:42:34.430Z,99.90
2018-06-14T19:45:03.495Z,99.90
2018-06-14T19:47:32.615Z,99.90
2018-06-14T19:50:02.017Z,99.90
2018-06-14T19:52:31.321Z,99.90
2018-06-14T19:55:00.320Z,99.90
2018-06-14T19:57:29.282Z,99.90
2018-06-14T19:59:58.306Z,99.90
2018-06-14T20:02:27.392Z,99.90
2018-06-14T20:04:57.146Z,99.90
2018-06-14T20:07:26.200Z,99.90
2018-06-14T20:09:55.778Z,99.90
2018-06-14T20:12:24.880Z,99.90
2018-06-14T20:14:53.931Z,99.90
2018-06-14T20:17:23.024Z,99.90
2018-06-14T20:19:51.980Z,99.90
2018-06-14T20:22:20.954Z,99.90
2018-06-14T20:24:49.944Z,99.90
2018-06-14T20:27:18.991Z,99.90
2018-06-14T20:29:48.803Z,99.90
2018-06-14T20:32:17.789Z,99.90
2018-06-14T20:34:46.792Z,99.90
2018-06-14T20:37:15.855Z,99.90
2018-06-14T20:39:45.467Z,99.90
2018-06-14T20:42:14.557Z,99.90
2018-06-14T20:44:43.587Z,99.90
2018-06-14T20:47:12.709Z,99.90
2018-06-14T20:49:41.782Z,99.90
2018-06-14T20:52:10.779Z,99.90
2018-06-14T20:54:39.782Z,99.90
2018-06-14T20:57:08.818Z,99.90
2018-06-14T20:59:37.896Z,99.90
2018-06-14T21:02:07.011Z,99.90
2018-06-14T21:04:36.022Z,99.90
2018-06-14T21:07:05.028Z,99.90
2018-06-14T21:09:34.051Z,99.90
2018-06-14T21:12:03.090Z,99.90
2018-06-14T21:14:32.251Z,99.90
2018-06-14T21:17:01.255Z,99.90
2018-06-14T21:19:30.352Z,99.90
2018-06-14T21:21:59.419Z,99.90
2018-06-14T21:24:28.457Z,99.90
2018-06-14T21:26:57.595Z,99.90
2018-06-14T21:29:26.667Z,99.90
2018-06-14T21:31:55.735Z,99.90
2018-06-14T21:34:25.151Z,99.90
2018-06-14T21:36:54.879Z,99.90
2018-06-14T21:39:23.847Z,99.90
2018-06-14T21:41:52.854Z,99.90
2018-06-14T21:44:21.883Z,99.90
2018-06-14T21:46:51.103Z,99.90
2018-06-14T21:49:20.182Z,99.90
2018-06-14T21:51:51.293Z,99.90
2018-06-14T21:54:20.273Z,99.90
2018-06-14T21:56:49.410Z,99.90
2018-06-14T21:59:18.482Z,99.90
2018-06-14T22:01:47.465Z,99.90
2018-06-14T22:04:16.498Z,99.90
2018-06-14T22:06:45.521Z,99.90
2018-06-14T22:09:14.506Z,99.90
2018-06-14T22:11:43.536Z,99.90
2018-06-14T22:14:12.551Z,99.90
2018-06-14T22:16:42.435Z,99.90
2018-06-14T22:19:11.420Z,99.90
2018-06-14T22:21:40.391Z,99.90
2018-06-14T22:24:09.354Z,99.90
2018-06-14T22:26:38.310Z,99.90
2018-06-14T22:29:07.323Z,99.90
2018-06-14T22:31:36.504Z,99.90
2018-06-14T22:34:16.776Z,99.90
2018-06-14T22:36:46.001Z,99.90
2018-06-14T22:39:14.951Z,99.90
2018-06-14T22:41:43.953Z,99.90
2018-06-14T22:44:12.973Z,99.90
2018-06-14T22:46:42.016Z,99.90
2018-06-14T22:49:10.991Z,99.90
2018-06-14T22:51:53.956Z,99.90
2018-06-14T22:54:22.938Z,99.90
2018-06-14T22:56:51.918Z,99.90
2018-06-14T22:59:20.907Z,99.90
2018-06-14T23:01:51.642Z,99.90
2018-06-14T23:04:23.705Z,99.90
2018-06-14T23:06:52.754Z,99.90
2018-06-14T23:10:36.934Z,99.90
2018-06-14T23:13:06.694Z,99.90
2018-06-14T23:15:35.759Z,99.90
2018-06-14T23:18:04.753Z,99.90
2018-06-14T23:20:34.319Z,99.90
2018-06-14T23:23:04.020Z,99.90
2018-06-14T23:25:33.479Z,99.90
2018-06-14T23:28:02.494Z,99.90
2018-06-14T23:30:31.487Z,99.90
2018-06-14T23:33:00.513Z,99.90
2018-06-14T23:35:29.474Z,99.90
2018-06-14T23:37:58.470Z,99.90
2018-06-14T23:40:27.703Z,99.90
2018-06-14T23:42:56.660Z,99.90
2018-06-14T23:45:25.743Z,99.90
2018-06-14T23:47:54.723Z,99.90
2018-06-14T23:50:23.739Z,99.90
2018-06-14T23:52:52.760Z,99.90
2018-06-14T23:55:21.723Z,99.90
2018-06-14T23:57:50.736Z,99.90
